Time;durP1;ratioP1;P1;durP2;ratioP2;P2;SDS_P1;SDS_P2;PMS_P1;PMS_P2;Temp;Humidity;BMP_temperature;BMP_pressure;BME280_temperature;BME280_humidity;BME280_pressure;Samples;Min_cycle;Max_cycle;Signal;HPM_P1;HPM_P2
2023/11/27 00:00:12;;;;;;;13.33;8.10;;;;;;;;;;5091737;28;20299;-84
2023/11/27 00:02:39;;;;;;;9.73;6.27;;;;;;;;;;5091766;28;20202;-85
2023/11/27 00:05:06;;;;;;;10.70;6.77;;;;;;;;;;5091824;28;20252;-84
2023/11/27 00:07:33;;;;;;;9.43;6.30;;;;;;;;;;5091931;28;20198;-84
2023/11/27 00:10:00;;;;;;;12.53;7.30;;;;;;;;;;5091770;28;20287;-84
2023/11/27 00:12:28;;;;;;;11.13;7.30;;;;;;;;;;5091181;28;20232;-83
2023/11/27 00:14:56;;;;;;;9.53;6.70;;;;;;;;;;5091760;28;20633;-84
2023/11/27 00:17:27;;;;;;;12.70;6.63;;;;;;;;;;5091692;28;20222;-84
2023/11/27 00:19:57;;;;;;;14.67;7.67;;;;;;;;;;5091330;28;20225;-84
2023/11/27 00:22:24;;;;;;;12.60;6.90;;;;;;;;;;5091430;28;20229;-84
2023/11/27 00:24:51;;;;;;;9.63;6.77;;;;;;;;;;5091579;28;20222;-84
2023/11/27 00:27:18;;;;;;;13.73;6.63;;;;;;;;;;5091157;28;20207;-84
2023/11/27 00:29:46;;;;;;;10.30;6.43;;;;;;;;;;5091405;28;20298;-84
2023/11/27 00:32:14;;;;;;;8.57;5.97;;;;;;;;;;5091369;28;20279;-84
2023/11/27 00:34:42;;;;;;;8.57;6.13;;;;;;;;;;5091527;28;20197;-85
2023/11/27 00:37:09;;;;;;;11.00;6.10;;;;;;;;;;5091370;28;20198;-83
2023/11/27 00:39:36;;;;;;;9.77;6.87;;;;;;;;;;5091748;28;20202;-84
2023/11/27 00:42:03;;;;;;;9.93;5.93;;;;;;;;;;5090628;28;20302;-85
2023/11/27 00:44:30;;;;;;;10.83;6.00;;;;;;;;;;5091349;28;20222;-85
2023/11/27 00:46:58;;;;;;;11.20;6.27;;;;;;;;;;5091204;28;20211;-84
2023/11/27 00:49:27;;;;;;;11.70;5.90;;;;;;;;;;5090996;28;20197;-84
2023/11/27 00:51:54;;;;;;;8.83;5.90;;;;;;;;;;5091497;28;20234;-84
2023/11/27 00:54:21;;;;;;;8.13;5.67;;;;;;;;;;5091249;28;20191;-84
2023/11/27 00:56:49;;;;;;;9.67;5.50;;;;;;;;;;5090817;28;20207;-84
2023/11/27 00:59:16;;;;;;;10.43;5.70;;;;;;;;;;5091099;28;20241;-85
2023/11/27 01:01:44;;;;;;;10.10;6.17;;;;;;;;;;5091221;28;20230;-85
2023/11/27 01:04:11;;;;;;;7.37;5.57;;;;;;;;;;5091205;28;20186;-84
2023/11/27 01:06:40;;;;;;;7.07;5.30;;;;;;;;;;5091217;28;20198;-84
2023/11/27 01:09:08;;;;;;;9.97;5.40;;;;;;;;;;5090744;28;20207;-85
2023/11/27 01:11:35;;;;;;;9.63;5.70;;;;;;;;;;5090728;28;20252;-85
2023/11/27 01:14:02;;;;;;;10.43;5.23;;;;;;;;;;5091095;28;20234;-84
2023/11/27 01:16:29;;;;;;;10.60;5.30;;;;;;;;;;5090852;28;20214;-84
2023/11/27 01:18:57;;;;;;;11.90;5.07;;;;;;;;;;5091219;28;20770;-85
2023/11/27 01:21:24;;;;;;;7.63;5.07;;;;;;;;;;5091240;28;20307;-84
2023/11/27 01:23:53;;;;;;;9.13;5.70;;;;;;;;;;5090945;28;20659;-85
2023/11/27 01:26:20;;;;;;;11.00;4.90;;;;;;;;;;5093777;28;20967;-85
2023/11/27 01:28:47;;;;;;;9.93;5.53;;;;;;;;;;5094514;28;20277;-84
2023/11/27 01:31:14;;;;;;;7.43;4.73;;;;;;;;;;5094473;28;20191;-82
2023/11/27 01:33:42;;;;;;;9.67;4.97;;;;;;;;;;5083242;28;20289;-84
2023/11/27 01:36:09;;;;;;;8.97;4.53;;;;;;;;;;5091017;28;20229;-84
2023/11/27 01:38:38;;;;;;;7.47;4.80;;;;;;;;;;5094036;28;20655;-84
2023/11/27 01:41:08;;;;;;;9.17;4.80;;;;;;;;;;5094191;28;20227;-84
2023/11/27 01:43:35;;;;;;;8.03;4.50;;;;;;;;;;5094630;28;20579;-84
2023/11/27 01:46:16;;;;;;;8.17;4.80;;;;;;;;;;5094449;28;20247;-84
2023/11/27 01:48:43;;;;;;;7.27;4.20;;;;;;;;;;5093896;28;20194;-85
2023/11/27 01:51:11;;;;;;;6.37;4.30;;;;;;;;;;5094126;28;20221;-84
2023/11/27 01:53:39;;;;;;;8.00;4.40;;;;;;;;;;5093963;28;20704;-85
2023/11/27 01:56:08;;;;;;;6.73;4.20;;;;;;;;;;5094028;28;20199;-85
2023/11/27 01:58:36;;;;;;;7.97;4.27;;;;;;;;;;5093764;28;20224;-85
2023/11/27 02:01:04;;;;;;;6.70;4.50;;;;;;;;;;5093471;28;20234;-84
2023/11/27 02:03:31;;;;;;;5.87;3.90;;;;;;;;;;5094181;28;20237;-84
2023/11/27 02:05:58;;;;;;;11.47;4.47;;;;;;;;;;5093733;28;20297;-85
2023/11/27 02:08:27;;;;;;;7.53;4.20;;;;;;;;;;5093337;28;20210;-85
2023/11/27 02:10:55;;;;;;;6.63;4.37;;;;;;;;;;5093692;28;20191;-84
2023/11/27 02:13:24;;;;;;;7.93;4.37;;;;;;;;;;5093668;28;20648;-83
2023/11/27 02:15:52;;;;;;;7.20;4.13;;;;;;;;;;5093682;28;20742;-84
2023/11/27 02:18:22;;;;;;;6.90;4.30;;;;;;;;;;5093496;28;20686;-83
2023/11/27 02:20:49;;;;;;;7.90;4.00;;;;;;;;;;5093315;28;20285;-84
2023/11/27 02:23:19;;;;;;;11.27;4.13;;;;;;;;;;5092801;28;20230;-84
2023/11/27 02:25:47;;;;;;;7.67;4.03;;;;;;;;;;5092951;28;20199;-84
2023/11/27 02:28:14;;;;;;;4.67;3.30;;;;;;;;;;5093214;28;20198;-84
2023/11/27 02:30:41;;;;;;;8.07;3.83;;;;;;;;;;5093270;28;20206;-84
2023/11/27 02:33:08;;;;;;;6.93;3.80;;;;;;;;;;5093183;28;20678;-83
2023/11/27 02:35:36;;;;;;;7.73;3.73;;;;;;;;;;5093095;28;20255;-84
2023/11/27 02:38:03;;;;;;;5.70;3.67;;;;;;;;;;5093117;28;20286;-84
2023/11/27 02:40:32;;;;;;;6.97;3.90;;;;;;;;;;5093187;28;20194;-84
2023/11/27 02:42:59;;;;;;;10.80;3.80;;;;;;;;;;5092652;28;20680;-84
2023/11/27 02:45:26;;;;;;;7.40;3.63;;;;;;;;;;5092976;28;20199;-84
2023/11/27 02:47:54;;;;;;;7.50;3.50;;;;;;;;;;5092836;28;20244;-85
2023/11/27 02:50:22;;;;;;;5.70;3.70;;;;;;;;;;5092806;28;20869;-84
2023/11/27 02:52:49;;;;;;;8.77;3.50;;;;;;;;;;5092907;28;20687;-83
2023/11/27 02:55:17;;;;;;;6.27;3.30;;;;;;;;;;5092735;28;20198;-84
2023/11/27 02:57:46;;;;;;;9.70;3.67;;;;;;;;;;5092566;28;20293;-84
2023/11/27 03:00:15;;;;;;;6.20;3.33;;;;;;;;;;5092186;28;20230;-84
2023/11/27 03:02:42;;;;;;;7.40;3.50;;;;;;;;;;5092587;28;20234;-84
2023/11/27 03:05:10;;;;;;;7.60;3.57;;;;;;;;;;5092765;28;20202;-85
2023/11/27 03:07:37;;;;;;;6.40;3.33;;;;;;;;;;5092438;28;20205;-83
2023/11/27 03:10:05;;;;;;;5.70;3.50;;;;;;;;;;5086066;28;20211;-83
2023/11/27 03:12:32;;;;;;;6.80;3.60;;;;;;;;;;5072803;28;20281;-84
2023/11/27 03:15:01;;;;;;;7.07;3.00;;;;;;;;;;5072522;28;20203;-85
2023/11/27 03:17:28;;;;;;;7.17;3.40;;;;;;;;;;5075492;28;20675;-84
2023/11/27 03:19:55;;;;;;;8.20;3.23;;;;;;;;;;5078861;28;20294;-83
2023/11/27 03:22:25;;;;;;;6.87;3.03;;;;;;;;;;5072278;28;20715;-84
2023/11/27 03:24:52;;;;;;;6.47;3.23;;;;;;;;;;5090412;28;20214;-84
2023/11/27 03:27:19;;;;;;;6.87;3.47;;;;;;;;;;5092026;28;20200;-84
2023/11/27 03:29:46;;;;;;;10.57;3.30;;;;;;;;;;5092593;28;20710;-84
2023/11/27 03:32:15;;;;;;;7.40;3.70;;;;;;;;;;5092087;28;20284;-84
2023/11/27 03:34:45;;;;;;;7.60;3.47;;;;;;;;;;5091800;28;20278;-84
2023/11/27 03:37:13;;;;;;;6.37;3.37;;;;;;;;;;5092308;28;20304;-84
2023/11/27 03:39:40;;;;;;;7.37;3.70;;;;;;;;;;5091962;28;20737;-83
2023/11/27 03:42:08;;;;;;;7.73;3.53;;;;;;;;;;5092064;28;20313;-84
2023/11/27 03:44:35;;;;;;;8.17;3.27;;;;;;;;;;5092253;28;20255;-84
2023/11/27 03:47:02;;;;;;;7.43;3.50;;;;;;;;;;5092485;28;20195;-84
2023/11/27 03:49:30;;;;;;;6.63;3.80;;;;;;;;;;5091202;28;20285;-83
2023/11/27 03:51:57;;;;;;;6.20;3.63;;;;;;;;;;5091989;28;20213;-84
2023/11/27 03:54:24;;;;;;;8.73;4.10;;;;;;;;;;5091542;28;20735;-83
2023/11/27 03:56:51;;;;;;;8.13;3.70;;;;;;;;;;5091898;28;20198;-84
2023/11/27 03:59:19;;;;;;;9.00;4.30;;;;;;;;;;5091411;28;20321;-83
2023/11/27 04:01:46;;;;;;;6.83;3.97;;;;;;;;;;5092126;28;20960;-85
2023/11/27 04:04:14;;;;;;;7.20;3.50;;;;;;;;;;5091456;28;20230;-84
2023/11/27 04:06:46;;;;;;;8.60;3.80;;;;;;;;;;5091730;28;20649;-84
2023/11/27 04:09:20;;;;;;;7.40;3.90;;;;;;;;;;5091812;28;20212;-84
2023/11/27 04:11:48;;;;;;;6.77;3.80;;;;;;;;;;5091836;28;20652;-84
2023/11/27 04:14:14;;;;;;;8.47;3.90;;;;;;;;;;5091838;28;20290;-84
2023/11/27 04:16:42;;;;;;;6.00;3.83;;;;;;;;;;5091359;28;20194;-84
2023/11/27 04:19:09;;;;;;;7.80;3.80;;;;;;;;;;5091188;28;20285;-84
2023/11/27 04:21:37;;;;;;;10.93;4.20;;;;;;;;;;5091521;28;20195;-83
2023/11/27 04:24:06;;;;;;;8.27;4.20;;;;;;;;;;5091653;28;20277;-84
2023/11/27 04:26:33;;;;;;;7.90;4.07;;;;;;;;;;5091678;28;20207;-84
2023/11/27 04:29:01;;;;;;;7.13;3.80;;;;;;;;;;5091388;28;20206;-85
2023/11/27 04:31:28;;;;;;;6.93;4.13;;;;;;;;;;5091037;28;20198;-83
2023/11/27 04:33:56;;;;;;;8.43;3.63;;;;;;;;;;5091139;28;20206;-83
2023/11/27 04:36:23;;;;;;;7.30;4.40;;;;;;;;;;5091458;28;20248;-83
2023/11/27 04:38:50;;;;;;;7.83;4.23;;;;;;;;;;5091425;28;20196;-83
2023/11/27 04:41:20;;;;;;;8.33;3.97;;;;;;;;;;5091774;28;20804;-84
2023/11/27 04:43:47;;;;;;;8.80;4.27;;;;;;;;;;5091091;28;20223;-83
2023/11/27 04:46:14;;;;;;;8.73;4.07;;;;;;;;;;5091381;28;20218;-83
2023/11/27 04:48:42;;;;;;;7.20;4.50;;;;;;;;;;5091179;28;20327;-83
2023/11/27 04:51:09;;;;;;;8.83;4.67;;;;;;;;;;5091275;28;20218;-83
2023/11/27 04:53:37;;;;;;;9.83;4.77;;;;;;;;;;5091252;28;20738;-83
2023/11/27 04:56:04;;;;;;;6.67;4.50;;;;;;;;;;5091598;28;20195;-83
2023/11/27 04:58:33;;;;;;;9.27;4.50;;;;;;;;;;5091053;28;20270;-83
2023/11/27 05:01:02;;;;;;;8.30;4.43;;;;;;;;;;5093262;28;20226;-83
2023/11/27 05:03:37;;;;;;;6.30;4.67;;;;;;;;;;5094379;28;20225;-84
2023/11/27 05:06:04;;;;;;;7.80;4.47;;;;;;;;;;5095077;28;20201;-84
2023/11/27 05:08:31;;;;;;;8.63;4.70;;;;;;;;;;5095488;28;20225;-84
2023/11/27 05:10:58;;;;;;;9.37;4.80;;;;;;;;;;5094224;28;20236;-82
2023/11/27 05:13:26;;;;;;;6.87;4.93;;;;;;;;;;5095297;28;20203;-83
2023/11/27 05:15:55;;;;;;;8.60;5.10;;;;;;;;;;5094353;28;20201;-83
2023/11/27 05:18:22;;;;;;;10.57;5.83;;;;;;;;;;5094563;28;20229;-84
2023/11/27 05:20:49;;;;;;;8.87;5.80;;;;;;;;;;5094819;28;20240;-84
2023/11/27 05:23:16;;;;;;;10.30;6.20;;;;;;;;;;5094504;28;20287;-84
2023/11/27 05:25:44;;;;;;;10.30;6.00;;;;;;;;;;5094410;28;20248;-84
2023/11/27 05:28:11;;;;;;;10.43;6.57;;;;;;;;;;5094757;28;20205;-83
2023/11/27 05:30:39;;;;;;;11.13;6.10;;;;;;;;;;5094309;28;20190;-84
2023/11/27 05:33:08;;;;;;;9.00;6.03;;;;;;;;;;5094515;28;20215;-83
2023/11/27 05:35:35;;;;;;;7.57;5.60;;;;;;;;;;5094294;28;20201;-84
2023/11/27 05:38:03;;;;;;;7.80;5.50;;;;;;;;;;5094289;28;20197;-83
2023/11/27 05:40:30;;;;;;;6.13;4.70;;;;;;;;;;5094098;28;20197;-83
2023/11/27 05:43:04;;;;;;;9.80;5.63;;;;;;;;;;5094111;28;20334;-83
2023/11/27 05:45:32;;;;;;;6.83;5.53;;;;;;;;;;5093344;28;20195;-82
2023/11/27 05:47:59;;;;;;;8.00;5.90;;;;;;;;;;5093833;28;20198;-82
2023/11/27 05:50:28;;;;;;;7.43;6.53;;;;;;;;;;5094305;28;20548;-83
2023/11/27 05:52:56;;;;;;;6.53;5.93;;;;;;;;;;5093972;28;20206;-84
2023/11/27 05:55:24;;;;;;;7.83;5.50;;;;;;;;;;5093952;28;20230;-83
2023/11/27 05:57:51;;;;;;;7.00;6.03;;;;;;;;;;5093487;28;20198;-83
2023/11/27 06:00:19;;;;;;;8.40;6.27;;;;;;;;;;5093106;28;20261;-83
2023/11/27 06:02:46;;;;;;;7.50;6.07;;;;;;;;;;5093536;28;20292;-84
2023/11/27 06:05:15;;;;;;;9.03;6.00;;;;;;;;;;5093843;28;20225;-82
2023/11/27 06:07:45;;;;;;;9.13;6.70;;;;;;;;;;5093465;28;20202;-84
2023/11/27 06:10:16;;;;;;;7.60;5.57;;;;;;;;;;5093666;28;20226;-84
2023/11/27 06:12:44;;;;;;;9.63;5.83;;;;;;;;;;5094157;28;20615;-83
2023/11/27 06:15:14;;;;;;;7.37;5.10;;;;;;;;;;5093818;28;20643;-84
2023/11/27 06:17:41;;;;;;;6.90;5.60;;;;;;;;;;5093311;28;20233;-84
2023/11/27 06:20:12;;;;;;;6.37;5.20;;;;;;;;;;5094192;28;20190;-83
2023/11/27 06:22:39;;;;;;;7.57;4.97;;;;;;;;;;5093471;28;20222;-83
2023/11/27 06:25:09;;;;;;;7.10;5.00;;;;;;;;;;5093146;28;20233;-84
2023/11/27 06:27:36;;;;;;;8.23;5.40;;;;;;;;;;5093995;28;20614;-83
2023/11/27 06:30:04;;;;;;;6.77;5.23;;;;;;;;;;5093336;28;20707;-83
2023/11/27 06:32:33;;;;;;;7.57;5.20;;;;;;;;;;5090715;28;20561;-84
2023/11/27 06:35:03;;;;;;;8.17;5.00;;;;;;;;;;5092206;28;20281;-82
2023/11/27 06:37:30;;;;;;;5.77;4.83;;;;;;;;;;5093545;28;20191;-82
2023/11/27 06:39:58;;;;;;;6.20;5.00;;;;;;;;;;5093280;28;20584;-81
2023/11/27 06:42:26;;;;;;;8.37;5.40;;;;;;;;;;5093174;28;20195;-82
2023/11/27 06:44:54;;;;;;;5.33;4.33;;;;;;;;;;5091284;28;20255;-81
2023/11/27 06:47:21;;;;;;;7.57;4.77;;;;;;;;;;5061970;28;20214;-83
2023/11/27 06:49:49;;;;;;;6.50;4.97;;;;;;;;;;5075555;28;20850;-82
2023/11/27 06:52:17;;;;;;;7.57;5.40;;;;;;;;;;5071049;28;20207;-83
2023/11/27 06:54:44;;;;;;;6.17;5.00;;;;;;;;;;5079646;28;20213;-81
2023/11/27 06:57:12;;;;;;;7.63;5.10;;;;;;;;;;5072772;28;20256;-82
2023/11/27 06:59:40;;;;;;;8.57;6.00;;;;;;;;;;5080045;28;20243;-81
2023/11/27 07:02:08;;;;;;;8.03;6.83;;;;;;;;;;5089247;28;20575;-81
2023/11/27 07:04:35;;;;;;;10.03;6.70;;;;;;;;;;5092309;28;20230;-81
2023/11/27 07:07:02;;;;;;;9.87;7.23;;;;;;;;;;5092282;28;20273;-81
2023/11/27 07:09:29;;;;;;;9.63;7.70;;;;;;;;;;5092490;28;20233;-82
2023/11/27 07:11:56;;;;;;;11.23;7.40;;;;;;;;;;5091843;28;20226;-79
2023/11/27 07:14:26;;;;;;;12.03;8.07;;;;;;;;;;5092503;28;20277;-81
2023/11/27 07:16:54;;;;;;;11.53;8.03;;;;;;;;;;5091641;28;20225;-81
2023/11/27 07:19:21;;;;;;;10.93;7.87;;;;;;;;;;5091713;28;20278;-82
2023/11/27 07:21:49;;;;;;;11.17;8.50;;;;;;;;;;5092080;28;20636;-81
2023/11/27 07:24:17;;;;;;;11.97;8.60;;;;;;;;;;5091144;28;20258;-81
2023/11/27 07:26:44;;;;;;;10.47;7.83;;;;;;;;;;5091623;28;20209;-81
2023/11/27 07:29:12;;;;;;;12.10;7.03;;;;;;;;;;5092199;28;20204;-81
2023/11/27 07:31:39;;;;;;;11.70;8.37;;;;;;;;;;5091534;28;20234;-81
2023/11/27 07:34:11;;;;;;;9.10;7.40;;;;;;;;;;5091611;28;20737;-81
2023/11/27 07:36:38;;;;;;;10.40;8.13;;;;;;;;;;5072232;28;20257;-81
2023/11/27 07:39:07;;;;;;;11.00;8.70;;;;;;;;;;5087891;28;20290;-82
2023/11/27 07:41:34;;;;;;;12.03;8.97;;;;;;;;;;5091089;28;20237;-81
2023/11/27 07:44:02;;;;;;;10.40;8.13;;;;;;;;;;5091372;28;20249;-82
2023/11/27 07:46:29;;;;;;;11.40;9.63;;;;;;;;;;5091695;28;20281;-82
2023/11/27 07:48:59;;;;;;;10.63;9.53;;;;;;;;;;5091568;28;20662;-80
2023/11/27 07:51:28;;;;;;;9.73;8.13;;;;;;;;;;5090972;28;20290;-82
2023/11/27 07:53:55;;;;;;;9.50;8.00;;;;;;;;;;5091322;28;20198;-82
2023/11/27 07:56:27;;;;;;;10.50;7.60;;;;;;;;;;5090924;28;20247;-82
2023/11/27 07:58:54;;;;;;;10.30;7.70;;;;;;;;;;5091128;28;20252;-82
2023/11/27 08:01:22;;;;;;;10.10;7.60;;;;;;;;;;5091997;28;20233;-82
2023/11/27 08:03:49;;;;;;;12.77;7.93;;;;;;;;;;5090830;28;20240;-82
2023/11/27 08:06:16;;;;;;;12.03;7.67;;;;;;;;;;5091611;28;20194;-80
2023/11/27 08:08:45;;;;;;;10.83;9.67;;;;;;;;;;5091354;28;20293;-81
2023/11/27 08:11:13;;;;;;;13.57;9.30;;;;;;;;;;5090116;28;20697;-82
2023/11/27 08:13:43;;;;;;;11.27;9.07;;;;;;;;;;5091139;28;20221;-82
2023/11/27 08:16:10;;;;;;;14.97;10.70;;;;;;;;;;5091471;28;20575;-81
2023/11/27 08:18:38;;;;;;;14.43;10.60;;;;;;;;;;5091177;28;20688;-81
2023/11/27 08:21:07;;;;;;;13.90;9.60;;;;;;;;;;5091064;28;20191;-81
2023/11/27 08:23:35;;;;;;;14.03;10.27;;;;;;;;;;5090802;28;20271;-82
2023/11/27 08:26:04;;;;;;;9.70;8.17;;;;;;;;;;5090697;28;20199;-82
2023/11/27 08:28:32;;;;;;;9.00;7.63;;;;;;;;;;5091328;28;20204;-81
2023/11/27 08:30:59;;;;;;;9.67;7.10;;;;;;;;;;5085125;28;20703;-81
2023/11/27 08:33:27;;;;;;;11.93;6.80;;;;;;;;;;5070804;28;20635;-81
2023/11/27 08:35:54;;;;;;;9.23;7.30;;;;;;;;;;5089313;28;20202;-82
2023/11/27 08:38:21;;;;;;;9.23;7.67;;;;;;;;;;5095158;28;20202;-82
2023/11/27 08:40:48;;;;;;;10.83;8.30;;;;;;;;;;5095135;28;20298;-82
2023/11/27 08:43:17;;;;;;;13.30;8.60;;;;;;;;;;5095234;28;20249;-81
2023/11/27 08:45:44;;;;;;;16.50;10.30;;;;;;;;;;5094872;28;20202;-82
2023/11/27 08:48:12;;;;;;;11.20;9.30;;;;;;;;;;5095000;28;20202;-81
2023/11/27 08:50:40;;;;;;;13.80;10.27;;;;;;;;;;5095187;28;20191;-81
2023/11/27 08:53:09;;;;;;;11.97;10.30;;;;;;;;;;5094584;28;20194;-82
2023/11/27 08:55:36;;;;;;;8.87;7.57;;;;;;;;;;5094276;28;20270;-82
2023/11/27 08:58:04;;;;;;;11.37;9.20;;;;;;;;;;5094311;28;20712;-82
2023/11/27 09:00:34;;;;;;;8.67;7.40;;;;;;;;;;5086512;28;20265;-82
2023/11/27 09:03:02;;;;;;;9.70;8.40;;;;;;;;;;5087930;28;20578;-81
2023/11/27 09:05:31;;;;;;;11.23;7.10;;;;;;;;;;5094943;28;20214;-81
2023/11/27 09:08:00;;;;;;;9.40;6.30;;;;;;;;;;5094754;28;20203;-83
2023/11/27 09:10:27;;;;;;;11.07;6.97;;;;;;;;;;5094536;28;20190;-82
2023/11/27 09:12:55;;;;;;;8.83;6.73;;;;;;;;;;5094312;28;20202;-80
2023/11/27 09:15:22;;;;;;;8.43;7.10;;;;;;;;;;5094481;28;20709;-82
2023/11/27 09:17:51;;;;;;;10.00;7.50;;;;;;;;;;5094490;28;20670;-83
2023/11/27 09:20:18;;;;;;;9.57;7.03;;;;;;;;;;5094591;28;20232;-83
2023/11/27 09:22:46;;;;;;;11.67;7.47;;;;;;;;;;5093262;28;20686;-83
2023/11/27 09:25:15;;;;;;;9.73;7.40;;;;;;;;;;5073549;28;20318;-83
2023/11/27 09:27:42;;;;;;;16.47;8.37;;;;;;;;;;5074462;28;20203;-82
2023/11/27 09:30:10;;;;;;;10.90;7.33;;;;;;;;;;5074168;28;20602;-82
2023/11/27 09:32:38;;;;;;;13.00;8.03;;;;;;;;;;5074534;28;20199;-83
2023/11/27 09:35:08;;;;;;;13.87;9.10;;;;;;;;;;5081377;28;20294;-82
2023/11/27 09:37:35;;;;;;;11.33;8.07;;;;;;;;;;5080318;28;20215;-82
2023/11/27 09:40:05;;;;;;;11.97;8.40;;;;;;;;;;5073986;28;20286;-82
2023/11/27 09:42:35;;;;;;;11.63;7.73;;;;;;;;;;5073938;28;20195;-82
2023/11/27 09:45:03;;;;;;;12.87;8.63;;;;;;;;;;5073492;28;20226;-82
2023/11/27 09:47:31;;;;;;;17.50;10.10;;;;;;;;;;5072926;28;20231;-81
2023/11/27 09:50:00;;;;;;;16.97;10.63;;;;;;;;;;5076628;28;20639;-82
2023/11/27 09:52:31;;;;;;;12.20;10.97;;;;;;;;;;5073156;28;20203;-82
2023/11/27 09:55:03;;;;;;;15.57;10.87;;;;;;;;;;5072945;28;20674;-81
2023/11/27 09:57:31;;;;;;;14.03;11.07;;;;;;;;;;5073776;28;20191;-83
2023/11/27 09:59:59;;;;;;;20.07;11.30;;;;;;;;;;5073592;28;20266;-82
2023/11/27 10:02:27;;;;;;;14.73;11.20;;;;;;;;;;5073511;28;20202;-82
2023/11/27 10:05:04;;;;;;;12.00;9.50;;;;;;;;;;5086305;28;20593;-82
2023/11/27 10:07:34;;;;;;;12.30;9.57;;;;;;;;;;5076409;28;20666;-82
2023/11/27 10:10:04;;;;;;;13.67;7.90;;;;;;;;;;5073409;28;20661;-83
2023/11/27 10:12:33;;;;;;;11.27;8.17;;;;;;;;;;5073269;28;20286;-83
2023/11/27 10:15:02;;;;;;;11.73;7.47;;;;;;;;;;5073646;28;20209;-81
2023/11/27 10:17:29;;;;;;;10.30;7.37;;;;;;;;;;5085234;28;20198;-81
2023/11/27 10:19:58;;;;;;;13.07;8.17;;;;;;;;;;5093385;28;20194;-82
2023/11/27 10:22:29;;;;;;;12.03;9.33;;;;;;;;;;5093053;28;20190;-82
2023/11/27 10:24:58;;;;;;;15.63;10.60;;;;;;;;;;5093185;28;20230;-81
2023/11/27 10:27:26;;;;;;;12.20;9.00;;;;;;;;;;5093054;28;20194;-82
2023/11/27 10:29:53;;;;;;;12.73;9.30;;;;;;;;;;5093069;28;20225;-81
2023/11/27 10:32:24;;;;;;;12.30;10.00;;;;;;;;;;5093040;28;20249;-82
2023/11/27 10:34:52;;;;;;;15.40;9.73;;;;;;;;;;5092920;28;20210;-81
2023/11/27 10:37:19;;;;;;;15.97;9.07;;;;;;;;;;5092910;28;20209;-81
2023/11/27 10:39:49;;;;;;;16.50;9.83;;;;;;;;;;5092792;28;20198;-82
2023/11/27 10:42:20;;;;;;;12.77;9.77;;;;;;;;;;5092806;28;20686;-80
2023/11/27 10:44:50;;;;;;;13.30;9.67;;;;;;;;;;5092367;28;20244;-81
2023/11/27 10:47:19;;;;;;;14.70;10.50;;;;;;;;;;5092606;28;20277;-82
2023/11/27 10:49:46;;;;;;;13.97;9.83;;;;;;;;;;5092299;28;20195;-81
2023/11/27 10:52:14;;;;;;;15.00;10.47;;;;;;;;;;5092262;28;20190;-82
2023/11/27 10:54:42;;;;;;;12.73;9.63;;;;;;;;;;5092550;28;20247;-82
2023/11/27 10:57:09;;;;;;;13.67;9.83;;;;;;;;;;5091602;28;20195;-81
2023/11/27 10:59:42;;;;;;;11.60;8.93;;;;;;;;;;5092084;28;20882;-81
2023/11/27 11:02:11;;;;;;;14.13;8.83;;;;;;;;;;5092641;28;20198;-81
2023/11/27 11:04:45;;;;;;;12.07;8.97;;;;;;;;;;5092224;28;20237;-79
2023/11/27 11:07:18;;;;;;;16.50;9.83;;;;;;;;;;5092045;28;20285;-81
2023/11/27 11:09:47;;;;;;;10.17;8.43;;;;;;;;;;5092010;28;20191;-80
2023/11/27 11:12:15;;;;;;;11.80;8.60;;;;;;;;;;5092018;28;20197;-81
2023/11/27 11:14:44;;;;;;;12.33;8.60;;;;;;;;;;5092107;28;20198;-81
2023/11/27 11:17:18;;;;;;;10.57;8.73;;;;;;;;;;5091879;28;20293;-81
2023/11/27 11:19:50;;;;;;;13.80;9.73;;;;;;;;;;5092329;28;20263;-81
2023/11/27 11:22:24;;;;;;;13.30;9.50;;;;;;;;;;5091667;28;20638;-82
2023/11/27 11:24:55;;;;;;;12.40;9.77;;;;;;;;;;5091319;28;20309;-80
2023/11/27 11:27:27;;;;;;;13.27;10.47;;;;;;;;;;5090667;28;20222;-82
2023/11/27 11:29:58;;;;;;;13.70;10.63;;;;;;;;;;5090840;28;20202;-81
2023/11/27 11:32:28;;;;;;;12.80;10.60;;;;;;;;;;5088421;28;20198;-81
2023/11/27 11:34:58;;;;;;;14.07;10.07;;;;;;;;;;5088960;28;20221;-82
2023/11/27 11:37:26;;;;;;;14.10;9.60;;;;;;;;;;5090406;28;20247;-82
2023/11/27 11:39:56;;;;;;;13.67;9.57;;;;;;;;;;5090690;28;20194;-81
2023/11/27 11:42:24;;;;;;;15.37;9.93;;;;;;;;;;5088005;28;20553;-82
2023/11/27 11:47:52;;;;;;;12.97;9.27;;;;;;;;;;5084676;28;20202;-81
2023/11/27 11:50:24;;;;;;;10.00;8.50;;;;;;;;;;5090116;28;20204;-82
2023/11/27 11:52:52;;;;;;;12.13;8.00;;;;;;;;;;5090933;28;20198;-81
2023/11/27 11:55:25;;;;;;;10.60;7.97;;;;;;;;;;5094825;28;20208;-80
2023/11/27 11:57:52;;;;;;;11.57;8.57;;;;;;;;;;5090479;28;20222;-80
2023/11/27 12:00:22;;;;;;;12.00;9.27;;;;;;;;;;5090019;28;20639;-81
2023/11/27 12:02:51;;;;;;;9.93;7.20;;;;;;;;;;5090188;28;20226;-81
2023/11/27 12:05:20;;;;;;;10.73;7.40;;;;;;;;;;5090137;28;20268;-81
2023/11/27 12:07:49;;;;;;;7.63;5.53;;;;;;;;;;5091129;28;20238;-81
2023/11/27 12:10:17;;;;;;;5.83;4.70;;;;;;;;;;5091168;28;20221;-81
2023/11/27 12:12:48;;;;;;;7.77;4.50;;;;;;;;;;5091293;28;20612;-80
2023/11/27 12:15:16;;;;;;;6.93;3.73;;;;;;;;;;5091094;28;20293;-81
2023/11/27 12:17:49;;;;;;;5.63;3.90;;;;;;;;;;5090350;28;20202;-80
2023/11/27 12:20:21;;;;;;;6.23;3.97;;;;;;;;;;5090438;28;20286;-81
2023/11/27 12:22:50;;;;;;;6.23;3.40;;;;;;;;;;5087919;28;20226;-80
2023/11/27 12:25:19;;;;;;;5.43;3.40;;;;;;;;;;5079738;28;20234;-81
2023/11/27 12:27:47;;;;;;;7.43;3.40;;;;;;;;;;5070034;28;20246;-82
2023/11/27 12:30:20;;;;;;;4.23;3.53;;;;;;;;;;5070993;28;20695;-81
2023/11/27 12:32:49;;;;;;;5.47;3.53;;;;;;;;;;5070927;28;20199;-80
2023/11/27 12:35:16;;;;;;;5.20;3.30;;;;;;;;;;5080480;28;20424;-80
2023/11/27 12:37:45;;;;;;;5.40;3.20;;;;;;;;;;5090927;28;20206;-80
2023/11/27 12:40:17;;;;;;;7.50;3.73;;;;;;;;;;5090759;28;20649;-80
2023/11/27 12:42:44;;;;;;;4.53;2.70;;;;;;;;;;5089844;28;20188;-81
2023/11/27 12:45:12;;;;;;;3.37;2.03;;;;;;;;;;5090876;28;20226;-81
2023/11/27 12:47:40;;;;;;;3.30;2.40;;;;;;;;;;5090692;28;20208;-81
2023/11/27 12:50:17;;;;;;;5.67;3.20;;;;;;;;;;5091133;28;20284;-81
2023/11/27 12:52:46;;;;;;;3.03;2.10;;;;;;;;;;5090585;28;20560;-81
2023/11/27 12:55:14;;;;;;;5.23;2.63;;;;;;;;;;5090596;28;20263;-81
2023/11/27 12:57:42;;;;;;;6.10;2.83;;;;;;;;;;5091111;28;20230;-81
2023/11/27 13:00:13;;;;;;;5.67;2.80;;;;;;;;;;5090475;28;20226;-81
2023/11/27 13:02:43;;;;;;;5.33;2.80;;;;;;;;;;5091052;28;20199;-81
2023/11/27 13:05:12;;;;;;;6.33;3.00;;;;;;;;;;5090472;28;20230;-81
2023/11/27 13:07:41;;;;;;;3.83;2.53;;;;;;;;;;5090381;28;20244;-80
2023/11/27 13:10:11;;;;;;;4.03;2.30;;;;;;;;;;5090443;28;20207;-80
2023/11/27 13:12:48;;;;;;;4.17;2.53;;;;;;;;;;5090903;28;20198;-81
2023/11/27 13:15:21;;;;;;;5.63;2.80;;;;;;;;;;5090624;28;20205;-81
2023/11/27 13:17:53;;;;;;;5.43;2.80;;;;;;;;;;5090710;28;20212;-81
2023/11/27 13:20:22;;;;;;;7.63;3.00;;;;;;;;;;5090856;28;20198;-80
2023/11/27 13:22:49;;;;;;;5.50;2.40;;;;;;;;;;5094268;28;20247;-81
2023/11/27 13:25:17;;;;;;;3.47;2.27;;;;;;;;;;5094015;28;20257;-80
2023/11/27 13:27:46;;;;;;;6.57;2.40;;;;;;;;;;5094251;28;20202;-80
2023/11/27 13:30:24;;;;;;;3.80;2.23;;;;;;;;;;5093576;28;20206;-81
2023/11/27 13:32:52;;;;;;;4.23;2.53;;;;;;;;;;5094379;28;20198;-81
2023/11/27 13:35:29;;;;;;;3.80;2.00;;;;;;;;;;5093831;28;20576;-81
2023/11/27 13:38:00;;;;;;;3.73;2.10;;;;;;;;;;5076899;28;20190;-81
2023/11/27 13:40:28;;;;;;;6.53;2.23;;;;;;;;;;5074032;28;20238;-80
2023/11/27 13:42:56;;;;;;;4.23;2.23;;;;;;;;;;5074016;28;20202;-81
2023/11/27 13:45:33;;;;;;;6.87;2.40;;;;;;;;;;5072921;28;20222;-81
2023/11/27 13:48:00;;;;;;;3.17;2.17;;;;;;;;;;5072910;28;20301;-81
2023/11/27 13:50:36;;;;;;;4.27;2.30;;;;;;;;;;5076630;28;20295;-80
2023/11/27 13:53:03;;;;;;;3.30;1.93;;;;;;;;;;5073310;28;20217;-80
2023/11/27 13:55:34;;;;;;;3.23;2.03;;;;;;;;;;5073808;28;20635;-80
2023/11/27 13:58:06;;;;;;;3.93;2.10;;;;;;;;;;5073623;28;20221;-80
2023/11/27 14:00:34;;;;;;;3.93;2.10;;;;;;;;;;5073220;28;20251;-80
2023/11/27 14:03:02;;;;;;;4.63;2.03;;;;;;;;;;5082378;28;20199;-79
2023/11/27 14:05:36;;;;;;;5.20;2.20;;;;;;;;;;5078841;28;20313;-81
2023/11/27 14:08:09;;;;;;;4.47;2.23;;;;;;;;;;5090697;28;20246;-80
2023/11/27 14:10:54;;;;;;;4.13;2.20;;;;;;;;;;5072638;28;20253;-81
2023/11/27 14:13:22;;;;;;;4.60;2.40;;;;;;;;;;5072563;28;20195;-81
2023/11/27 14:15:49;;;;;;;5.70;2.30;;;;;;;;;;5073105;28;20203;-80
2023/11/27 14:23:54;;;;;;;3.60;2.30;;;;;;;;;;5069942;28;20203;-82
2023/11/27 14:26:34;;;;;;;4.83;2.50;;;;;;;;;;5072706;28;20227;-80
2023/11/27 14:29:06;;;;;;;2.43;1.80;;;;;;;;;;5078385;28;20202;-80
2023/11/27 14:31:33;;;;;;;4.80;2.20;;;;;;;;;;5092230;28;20768;-80
2023/11/27 14:34:01;;;;;;;5.30;2.20;;;;;;;;;;5093689;28;20233;-81
2023/11/27 14:36:29;;;;;;;3.43;2.37;;;;;;;;;;5092520;28;20360;-81
2023/11/27 14:38:57;;;;;;;4.07;2.10;;;;;;;;;;5093098;28;20190;-82
2023/11/27 14:41:24;;;;;;;1.90;1.60;;;;;;;;;;5093407;28;20200;-81
2023/11/27 14:43:52;;;;;;;3.37;1.80;;;;;;;;;;5092683;28;20581;-81
2023/11/27 14:46:20;;;;;;;3.37;1.80;;;;;;;;;;5092607;28;20233;-81
2023/11/27 14:48:47;;;;;;;3.27;1.50;;;;;;;;;;5092978;28;20202;-81
2023/11/27 14:51:15;;;;;;;3.40;1.50;;;;;;;;;;5092650;28;20226;-81
2023/11/27 14:53:52;;;;;;;3.10;1.67;;;;;;;;;;5092524;28;20198;-82